createdAt,value
2023-03-29T00:00:07.670Z,25.49
2023-03-29T00:02:08.042Z,25.52
2023-03-29T00:04:07.858Z,25.48
2023-03-29T00:06:07.720Z,25.52
2023-03-29T00:08:07.665Z,25.51
2023-03-29T00:10:07.702Z,25.56
2023-03-29T00:12:07.723Z,25.52
2023-03-29T00:14:07.756Z,25.55
2023-03-29T00:16:07.714Z,25.52
2023-03-29T00:18:07.752Z,25.52
2023-03-29T00:20:07.740Z,25.56
2023-03-29T00:22:07.731Z,25.51
2023-03-29T00:24:07.732Z,25.51
2023-03-29T00:26:08.326Z,25.57
2023-03-29T00:28:07.797Z,25.50
2023-03-29T00:30:07.770Z,25.52
2023-03-29T00:32:07.786Z,25.50
2023-03-29T00:34:07.784Z,25.48
2023-03-29T00:36:07.779Z,25.47
2023-03-29T00:38:07.799Z,25.54
2023-03-29T00:40:07.700Z,25.46
2023-03-29T00:42:07.721Z,25.46
2023-03-29T00:44:07.646Z,25.51
2023-03-29T00:46:07.704Z,25.42
2023-03-29T00:48:07.860Z,25.49
2023-03-29T00:50:07.817Z,25.43
2023-03-29T00:52:07.806Z,25.51
2023-03-29T00:54:07.785Z,25.51
2023-03-29T00:56:07.846Z,25.42
2023-03-29T00:58:07.766Z,25.52
2023-03-29T01:00:07.732Z,25.41
2023-03-29T01:02:07.840Z,25.51
2023-03-29T01:04:07.801Z,25.49
2023-03-29T01:06:07.790Z,25.43
2023-03-29T01:08:07.807Z,25.42
2023-03-29T01:10:07.701Z,25.50
2023-03-29T01:12:07.813Z,25.47
2023-03-29T01:14:07.782Z,25.47
2023-03-29T01:16:07.847Z,25.43
2023-03-29T01:18:07.821Z,25.49
2023-03-29T01:20:07.879Z,25.39
2023-03-29T01:22:07.776Z,25.44
2023-03-29T01:24:07.721Z,25.46
2023-03-29T01:26:07.863Z,25.47
2023-03-29T01:28:07.797Z,25.50
2023-03-29T01:30:07.815Z,25.40
2023-03-29T01:32:07.810Z,25.42
2023-03-29T01:34:07.773Z,25.50
2023-03-29T01:36:07.903Z,25.46
2023-03-29T01:38:07.839Z,25.44
2023-03-29T01:40:07.802Z,25.47
2023-03-29T01:42:07.762Z,25.47
2023-03-29T01:44:07.736Z,25.42
2023-03-29T01:46:07.872Z,25.45
2023-03-29T01:48:07.805Z,25.45
2023-03-29T01:50:07.805Z,25.50
2023-03-29T01:52:07.833Z,25.49
2023-03-29T01:54:07.858Z,25.46
2023-03-29T01:56:07.838Z,25.54
2023-03-29T01:58:07.853Z,25.48
2023-03-29T02:00:07.848Z,24.43
2023-03-29T02:02:07.846Z,23.72
2023-03-29T02:04:07.882Z,23.55
2023-03-29T02:06:07.901Z,23.50
2023-03-29T02:08:07.778Z,23.53
2023-03-29T02:10:07.823Z,23.45
2023-03-29T02:12:07.902Z,23.49
2023-03-29T02:14:07.937Z,23.51
2023-03-29T02:16:07.837Z,23.48
2023-03-29T02:18:07.888Z,23.52
2023-03-29T02:20:07.831Z,23.50
2023-03-29T02:22:07.873Z,23.49
2023-03-29T02:24:07.885Z,23.48
2023-03-29T02:26:07.823Z,23.49
2023-03-29T02:28:07.888Z,23.41
2023-03-29T02:30:07.881Z,23.36
2023-03-29T02:32:07.795Z,23.43
2023-03-29T02:34:07.926Z,23.43
2023-03-29T02:36:07.961Z,23.40
2023-03-29T02:38:07.892Z,23.40
2023-03-29T02:40:07.834Z,23.34
2023-03-29T02:42:07.902Z,23.35
2023-03-29T02:44:07.889Z,23.34
2023-03-29T02:46:08.009Z,23.33
2023-03-29T02:48:07.886Z,23.35
2023-03-29T02:50:07.861Z,23.26
2023-03-29T02:52:07.927Z,23.34
2023-03-29T02:54:07.918Z,23.25
2023-03-29T02:56:07.874Z,23.29
2023-03-29T02:58:07.884Z,23.27
2023-03-29T03:00:07.880Z,23.31
2023-03-29T03:02:07.994Z,23.25
2023-03-29T03:04:07.892Z,23.24
2023-03-29T03:06:07.966Z,23.26
2023-03-29T03:08:07.922Z,23.18
2023-03-29T03:10:07.939Z,23.19
2023-03-29T03:12:07.845Z,23.19
2023-03-29T03:14:07.942Z,23.21
2023-03-29T03:16:07.999Z,23.20
2023-03-29T03:18:07.875Z,23.23
2023-03-29T03:20:07.909Z,23.15
2023-03-29T03:22:07.961Z,23.20
2023-03-29T03:24:07.887Z,23.10
2023-03-29T03:26:07.955Z,23.21
2023-03-29T03:28:07.973Z,23.10
2023-03-29T03:30:07.903Z,23.12
2023-03-29T03:32:08.094Z,23.02
2023-03-29T03:34:07.940Z,23.03
2023-03-29T03:36:08.061Z,22.99
2023-03-29T03:38:07.909Z,22.98
2023-03-29T03:40:07.907Z,23.03
2023-03-29T03:42:08.533Z,23.06
2023-03-29T03:44:07.956Z,23.05
2023-03-29T03:46:07.963Z,23.08
2023-03-29T03:48:07.993Z,22.95
2023-03-29T03:50:07.974Z,23.04
2023-03-29T03:52:07.962Z,23.01
2023-03-29T03:54:07.979Z,22.96
2023-03-29T03:56:07.933Z,23.01
2023-03-29T03:58:07.967Z,22.95
2023-03-29T04:00:08.004Z,23.01
2023-03-29T04:02:08.018Z,22.98
2023-03-29T04:04:07.976Z,23.01
2023-03-29T04:06:08.006Z,23.02
2023-03-29T04:08:07.923Z,22.99
2023-03-29T04:10:07.902Z,22.77
2023-03-29T04:12:07.985Z,22.98
2023-03-29T04:14:08.028Z,22.91
2023-03-29T04:16:08.040Z,22.96
2023-03-29T04:18:08.089Z,22.95
2023-03-29T04:20:07.954Z,22.95
2023-03-29T04:22:07.944Z,22.82
2023-03-29T04:24:07.985Z,22.87
2023-03-29T04:26:08.054Z,22.87
2023-03-29T04:28:07.995Z,22.87
2023-03-29T04:30:08.059Z,22.97
2023-03-29T04:32:07.931Z,23.04
2023-03-29T04:34:07.983Z,23.10
2023-03-29T04:36:08.064Z,23.13
2023-03-29T04:38:07.974Z,23.13
2023-03-29T04:40:07.995Z,23.13
2023-03-29T04:42:08.027Z,23.10
2023-03-29T04:44:07.990Z,23.10
2023-03-29T04:46:08.051Z,23.06
2023-03-29T04:48:07.993Z,23.06
2023-03-29T04:50:08.045Z,23.10
2023-03-29T04:52:08.000Z,23.13
2023-03-29T04:54:08.006Z,23.12
2023-03-29T04:56:08.028Z,23.08
2023-03-29T04:58:07.998Z,23.10
2023-03-29T05:00:08.059Z,23.15
2023-03-29T05:02:08.112Z,23.11
2023-03-29T05:04:08.570Z,23.18
2023-03-29T05:06:07.993Z,23.11
2023-03-29T05:08:08.066Z,23.11
2023-03-29T05:10:08.073Z,23.12
2023-03-29T05:12:07.971Z,23.04
2023-03-29T05:14:08.013Z,23.15
2023-03-29T05:16:08.044Z,23.11
2023-03-29T05:18:08.155Z,23.17
2023-03-29T05:20:08.138Z,23.34
2023-03-29T05:22:08.036Z,23.19
2023-03-29T05:24:08.005Z,23.26
2023-03-29T05:26:08.073Z,23.24
2023-03-29T05:28:08.034Z,23.24
2023-03-29T05:30:08.033Z,23.24
2023-03-29T05:32:08.168Z,23.22
2023-03-29T05:34:08.100Z,23.21
2023-03-29T05:36:08.108Z,23.26
2023-03-29T05:38:08.317Z,23.25
2023-03-29T05:40:08.116Z,23.26
2023-03-29T05:42:08.087Z,23.33
2023-03-29T05:44:07.954Z,23.21
2023-03-29T05:46:08.101Z,23.26
2023-03-29T05:48:08.138Z,23.25
2023-03-29T05:50:08.128Z,23.25
2023-03-29T05:52:08.110Z,23.25
2023-03-29T05:54:08.066Z,23.42
2023-03-29T05:56:08.041Z,23.34
2023-03-29T05:58:08.035Z,23.27
2023-03-29T06:00:08.102Z,23.36
2023-03-29T06:02:08.137Z,23.39
2023-03-29T06:04:08.204Z,23.41
2023-03-29T06:06:08.133Z,23.49
2023-03-29T06:08:08.083Z,23.53
2023-03-29T06:10:08.105Z,23.53
2023-03-29T06:12:08.104Z,23.53
2023-03-29T06:14:08.078Z,23.56
2023-03-29T06:16:08.117Z,23.67
2023-03-29T06:18:08.153Z,23.75
2023-03-29T06:20:08.116Z,23.75
2023-03-29T06:22:08.167Z,23.81
2023-03-29T06:24:08.129Z,23.81
2023-03-29T06:26:08.092Z,23.86
2023-03-29T06:28:08.075Z,23.96
2023-03-29T06:30:08.131Z,24.07
2023-03-29T06:32:08.207Z,24.15
2023-03-29T06:34:08.106Z,24.22
2023-03-29T06:36:08.161Z,24.26
2023-03-29T06:38:08.099Z,24.25
2023-03-29T06:40:08.112Z,24.19
2023-03-29T06:42:20.190Z,24.19
2023-03-29T06:44:08.153Z,24.25
2023-03-29T06:46:08.122Z,24.27
2023-03-29T06:48:08.284Z,24.28
2023-03-29T06:50:08.155Z,24.43
2023-03-29T06:52:08.114Z,24.90
2023-03-29T06:54:08.148Z,24.52
2023-03-29T06:56:08.092Z,24.52
2023-03-29T06:58:08.185Z,24.53
2023-03-29T07:00:08.127Z,24.55
2023-03-29T07:02:08.206Z,24.58
2023-03-29T07:04:08.286Z,24.41
2023-03-29T07:06:08.149Z,24.52
2023-03-29T07:08:08.137Z,24.46
2023-03-29T07:10:08.158Z,24.44
2023-03-29T07:12:08.166Z,24.43
2023-03-29T07:14:08.105Z,24.57
2023-03-29T07:16:08.179Z,24.51
2023-03-29T07:18:08.332Z,24.52
2023-03-29T07:20:08.205Z,24.58
2023-03-29T07:22:08.235Z,24.62
2023-03-29T07:24:08.148Z,24.71
2023-03-29T07:26:08.218Z,24.98
2023-03-29T07:28:08.106Z,24.99
2023-03-29T07:30:08.271Z,24.93
2023-03-29T07:32:08.194Z,24.97
2023-03-29T07:34:08.138Z,24.95
2023-03-29T07:36:08.189Z,25.04
2023-03-29T07:38:08.219Z,25.19
2023-03-29T07:40:08.227Z,25.23
2023-03-29T07:42:08.291Z,25.19
2023-03-29T07:44:08.168Z,25.24
2023-03-29T07:46:08.230Z,25.48
2023-03-29T07:48:08.315Z,25.56
2023-03-29T07:50:08.185Z,25.52
2023-03-29T07:52:08.108Z,25.83
2023-03-29T07:54:08.215Z,25.52
2023-03-29T07:56:08.224Z,25.51
2023-03-29T07:58:08.174Z,25.38
2023-03-29T08:00:08.173Z,25.65
2023-03-29T08:02:08.202Z,25.52
2023-03-29T08:04:08.411Z,25.21
2023-03-29T08:06:08.169Z,25.19
2023-03-29T08:08:08.158Z,25.18
2023-03-29T08:10:08.084Z,25.23
2023-03-29T08:12:08.271Z,25.35
2023-03-29T08:14:08.250Z,25.44
2023-03-29T08:16:08.216Z,25.43
2023-03-29T08:18:08.375Z,25.51
2023-03-29T08:20:08.258Z,26.22
2023-03-29T08:22:08.261Z,24.99
2023-03-29T08:24:08.210Z,24.98
2023-03-29T08:26:08.207Z,25.40
2023-03-29T08:28:08.176Z,25.65
2023-03-29T08:30:08.274Z,25.75
2023-03-29T08:32:08.267Z,25.77
2023-03-29T08:34:08.226Z,25.78
2023-03-29T08:36:08.321Z,25.80
2023-03-29T08:38:08.281Z,25.75
2023-03-29T08:40:08.225Z,25.26
2023-03-29T08:42:08.211Z,24.98
2023-03-29T08:44:08.237Z,25.44
2023-03-29T08:46:08.605Z,25.63
2023-03-29T08:48:08.348Z,25.65
2023-03-29T08:50:08.255Z,25.81
2023-03-29T08:52:08.238Z,25.93
2023-03-29T08:54:08.288Z,25.85
2023-03-29T08:56:08.322Z,25.97
2023-03-29T08:58:08.241Z,26.16
2023-03-29T09:00:09.555Z,26.37
2023-03-29T09:02:08.346Z,25.56
2023-03-29T09:04:08.394Z,25.06
2023-03-29T09:06:08.111Z,26.24
2023-03-29T09:08:08.317Z,25.23
2023-03-29T09:10:08.285Z,25.11
2023-03-29T09:12:08.312Z,25.03
2023-03-29T09:14:08.524Z,24.98
2023-03-29T09:16:08.281Z,25.07
2023-03-29T09:18:08.361Z,25.11
2023-03-29T09:20:08.324Z,25.00
2023-03-29T09:22:08.338Z,25.00
2023-03-29T09:24:08.206Z,25.07
2023-03-29T09:26:08.321Z,25.24
2023-03-29T09:28:08.286Z,25.57
2023-03-29T09:30:08.194Z,26.07
2023-03-29T09:32:08.279Z,25.98
2023-03-29T09:34:08.264Z,25.85
2023-03-29T09:36:08.425Z,25.96
2023-03-29T09:38:08.299Z,25.81
2023-03-29T09:40:08.272Z,25.85
2023-03-29T09:42:08.364Z,25.86
2023-03-29T09:44:10.883Z,25.90
2023-03-29T09:46:08.254Z,25.96
2023-03-29T09:48:08.270Z,25.93
2023-03-29T09:50:16.649Z,25.80
2023-03-29T09:52:08.310Z,25.74
2023-03-29T09:54:08.311Z,25.60
2023-03-29T09:56:08.324Z,25.65
2023-03-29T09:58:08.265Z,25.86
2023-03-29T10:00:08.344Z,25.89
2023-03-29T10:02:08.310Z,25.84
2023-03-29T10:04:08.364Z,26.16
2023-03-29T10:06:08.351Z,26.43
2023-03-29T10:08:08.396Z,25.23
2023-03-29T10:10:08.287Z,25.09
2023-03-29T10:12:08.311Z,25.05
2023-03-29T10:14:08.374Z,25.04
2023-03-29T10:16:08.422Z,25.08
2023-03-29T10:18:08.369Z,25.03
2023-03-29T10:20:09.682Z,25.26
2023-03-29T10:22:08.339Z,25.89
2023-03-29T10:24:08.358Z,26.25
2023-03-29T10:26:08.300Z,25.09
2023-03-29T10:28:09.962Z,24.90
2023-03-29T10:30:08.369Z,26.67
2023-03-29T10:32:08.446Z,25.12
2023-03-29T10:34:08.382Z,25.09
2023-03-29T10:36:08.480Z,25.13
2023-03-29T10:38:08.267Z,25.09
2023-03-29T10:40:08.350Z,25.05
2023-03-29T10:42:08.358Z,25.12
2023-03-29T10:44:08.398Z,25.10
2023-03-29T10:46:08.429Z,25.13
2023-03-29T10:48:08.456Z,25.11
2023-03-29T10:50:08.374Z,25.09
2023-03-29T10:52:08.446Z,24.99
2023-03-29T10:54:08.345Z,25.03
2023-03-29T10:56:08.398Z,25.05
2023-03-29T10:58:08.381Z,25.04
2023-03-29T11:00:08.358Z,25.06
2023-03-29T11:02:08.424Z,25.99
2023-03-29T11:04:08.453Z,26.33
2023-03-29T11:06:08.302Z,25.23
2023-03-29T11:08:08.388Z,24.99
2023-03-29T11:10:08.423Z,24.97
2023-03-29T11:12:15.788Z,25.03
2023-03-29T11:14:08.332Z,25.00
2023-03-29T11:16:08.523Z,25.08
2023-03-29T11:18:08.409Z,25.23
2023-03-29T11:20:08.300Z,25.09
2023-03-29T11:22:08.411Z,25.04
2023-03-29T11:24:08.937Z,25.10
2023-03-29T11:26:08.429Z,25.26
2023-03-29T11:28:08.460Z,26.90
2023-03-29T11:30:08.428Z,26.93
2023-03-29T11:32:08.445Z,26.93
2023-03-29T11:34:08.395Z,25.04
2023-03-29T11:36:08.539Z,25.05
2023-03-29T11:38:08.388Z,24.98
2023-03-29T11:40:08.427Z,24.97
2023-03-29T11:42:08.460Z,25.18
2023-03-29T11:44:08.350Z,25.18
2023-03-29T11:46:08.411Z,25.24
2023-03-29T11:48:08.461Z,25.18
2023-03-29T11:50:08.501Z,25.08
2023-03-29T11:52:08.492Z,25.05
2023-03-29T11:54:08.419Z,25.10
2023-03-29T11:56:08.521Z,25.21
2023-03-29T11:58:08.413Z,25.03
2023-03-29T12:00:08.379Z,25.08
2023-03-29T12:02:08.486Z,25.13
2023-03-29T12:04:08.707Z,26.98
2023-03-29T12:06:08.462Z,25.09
2023-03-29T12:08:08.486Z,27.07
2023-03-29T12:10:08.404Z,25.13
2023-03-29T12:12:08.477Z,24.33
2023-03-29T12:14:08.408Z,25.16
2023-03-29T12:16:08.531Z,25.15
2023-03-29T12:18:08.601Z,25.11
2023-03-29T12:20:08.519Z,25.15
2023-03-29T12:22:08.448Z,26.77
2023-03-29T12:24:08.429Z,25.09
2023-03-29T12:26:08.489Z,25.21
2023-03-29T12:28:08.499Z,25.28
2023-03-29T12:30:08.521Z,25.32
2023-03-29T12:32:08.537Z,25.19
2023-03-29T12:34:08.372Z,25.09
2023-03-29T12:36:08.597Z,26.16
2023-03-29T12:38:08.567Z,27.10
2023-03-29T12:40:08.582Z,26.20
2023-03-29T12:42:08.420Z,25.09
2023-03-29T12:44:10.762Z,25.52
2023-03-29T12:46:08.666Z,25.32
2023-03-29T12:48:08.597Z,25.44
2023-03-29T12:50:08.605Z,25.26
2023-03-29T12:52:08.521Z,25.23
2023-03-29T12:54:08.515Z,25.11
2023-03-29T12:56:08.626Z,25.92
2023-03-29T12:58:08.489Z,27.01
2023-03-29T13:00:08.588Z,24.23
2023-03-29T13:02:08.514Z,25.09
2023-03-29T13:04:08.527Z,25.19
2023-03-29T13:06:08.576Z,25.14
2023-03-29T13:08:08.579Z,25.21
2023-03-29T13:10:08.614Z,25.25
2023-03-29T13:12:08.569Z,25.11
2023-03-29T13:14:08.580Z,26.80
2023-03-29T13:16:08.684Z,26.96
2023-03-29T13:18:11.718Z,25.50
2023-03-29T13:20:08.653Z,25.09
2023-03-29T13:22:08.535Z,25.51
2023-03-29T13:24:08.595Z,25.51
2023-03-29T13:26:08.588Z,25.25
2023-03-29T13:28:08.539Z,25.45
2023-03-29T13:30:08.514Z,25.50
2023-03-29T13:32:08.542Z,25.39
2023-03-29T13:34:08.622Z,25.05
2023-03-29T13:36:08.808Z,25.75
2023-03-29T13:38:08.573Z,25.09
2023-03-29T13:40:08.509Z,25.07
2023-03-29T13:42:08.537Z,25.08
2023-03-29T13:44:08.606Z,25.10
2023-03-29T13:46:08.653Z,25.14
2023-03-29T13:48:08.544Z,25.17
2023-03-29T13:50:08.573Z,24.35
2023-03-29T13:52:08.607Z,25.22
2023-03-29T13:54:08.526Z,25.23
2023-03-29T13:56:08.708Z,25.52
2023-03-29T13:58:08.593Z,25.50
2023-03-29T14:00:08.597Z,25.08
2023-03-29T14:02:08.605Z,27.03
2023-03-29T14:04:08.577Z,27.07
2023-03-29T14:06:08.548Z,25.40
2023-03-29T14:08:08.616Z,25.31
2023-03-29T14:10:08.491Z,25.29
2023-03-29T14:12:08.593Z,25.28
2023-03-29T14:14:08.637Z,25.37
2023-03-29T14:16:08.655Z,25.50
2023-03-29T14:18:08.645Z,25.37
2023-03-29T14:20:08.581Z,25.32
2023-03-29T14:22:08.607Z,25.33
2023-03-29T14:24:08.566Z,26.41
2023-03-29T14:26:08.552Z,25.39
2023-03-29T14:28:08.528Z,24.98
2023-03-29T14:30:08.635Z,25.19
2023-03-29T14:32:08.748Z,25.15
2023-03-29T14:34:08.608Z,25.08
2023-03-29T14:36:08.830Z,25.06
2023-03-29T14:38:08.564Z,25.13
2023-03-29T14:40:08.628Z,25.17
2023-03-29T14:42:08.631Z,25.49
2023-03-29T14:44:08.622Z,26.93
2023-03-29T14:46:08.609Z,25.09
2023-03-29T14:48:08.655Z,25.09
2023-03-29T14:50:08.625Z,25.18
2023-03-29T14:52:08.677Z,25.25
2023-03-29T14:54:08.557Z,25.28
2023-03-29T14:56:08.685Z,25.29
2023-03-29T14:58:11.129Z,25.27
2023-03-29T15:00:08.631Z,25.15
2023-03-29T15:02:08.717Z,25.01
2023-03-29T15:04:08.605Z,25.09
2023-03-29T15:06:08.704Z,25.00
2023-03-29T15:08:08.728Z,25.28
2023-03-29T15:10:08.726Z,25.21
2023-03-29T15:12:08.679Z,25.23
2023-03-29T15:14:08.677Z,25.22
2023-03-29T15:16:08.852Z,25.18
2023-03-29T15:18:08.738Z,25.15
2023-03-29T15:20:08.668Z,25.12
2023-03-29T15:22:08.626Z,25.11
2023-03-29T15:24:08.646Z,24.98
2023-03-29T15:26:08.719Z,25.18
2023-03-29T15:28:08.697Z,25.09
2023-03-29T15:30:08.613Z,25.49
2023-03-29T15:32:08.767Z,24.59
2023-03-29T15:34:09.635Z,24.38
2023-03-29T15:36:08.653Z,24.48
2023-03-29T15:38:08.733Z,25.47
2023-03-29T15:40:08.575Z,25.36
2023-03-29T15:42:08.756Z,25.28
2023-03-29T15:44:08.743Z,25.23
2023-03-29T15:46:08.939Z,25.29
2023-03-29T15:48:08.739Z,25.39
2023-03-29T15:50:08.671Z,25.29
2023-03-29T15:52:08.735Z,25.23
2023-03-29T15:54:08.788Z,25.14
2023-03-29T15:56:08.699Z,25.10
2023-03-29T15:58:08.727Z,25.40
2023-03-29T16:00:08.760Z,25.29
2023-03-29T16:02:08.739Z,25.51
2023-03-29T16:04:08.767Z,25.38
2023-03-29T16:06:08.702Z,25.03
2023-03-29T16:08:08.764Z,25.33
2023-03-29T16:10:08.642Z,25.09
2023-03-29T16:12:08.714Z,24.92
2023-03-29T16:14:08.795Z,24.71
2023-03-29T16:16:08.821Z,24.57
2023-03-29T16:18:08.700Z,24.49
2023-03-29T16:20:08.661Z,24.48
2023-03-29T16:22:08.689Z,24.48
2023-03-29T16:24:08.743Z,24.43
2023-03-29T16:26:08.735Z,24.44
2023-03-29T16:28:08.642Z,24.40
2023-03-29T16:30:08.725Z,24.32
2023-03-29T16:32:08.814Z,24.37
2023-03-29T16:34:08.749Z,24.31
2023-03-29T16:36:08.797Z,24.23
2023-03-29T16:38:08.759Z,24.27
2023-03-29T16:40:08.682Z,24.18
2023-03-29T16:42:08.770Z,24.18
2023-03-29T16:44:08.793Z,24.00
2023-03-29T16:46:08.632Z,24.38
2023-03-29T16:48:08.675Z,24.48
2023-03-29T16:50:08.733Z,24.34
2023-03-29T16:52:08.774Z,24.20
2023-03-29T16:54:08.803Z,24.07
2023-03-29T16:56:08.756Z,24.04
2023-03-29T16:58:08.942Z,23.96
2023-03-29T17:00:08.708Z,24.02
2023-03-29T17:02:08.825Z,23.96
2023-03-29T17:04:08.960Z,23.84
2023-03-29T17:06:08.855Z,23.94
2023-03-29T17:08:08.793Z,23.84
2023-03-29T17:10:08.763Z,23.85
2023-03-29T17:12:09.025Z,23.81
2023-03-29T17:14:08.789Z,23.79
2023-03-29T17:16:08.808Z,23.82
2023-03-29T17:18:08.894Z,23.82
2023-03-29T17:20:08.754Z,23.81
2023-03-29T17:22:08.761Z,23.82
2023-03-29T17:24:08.788Z,23.83
2023-03-29T17:26:08.782Z,23.87
2023-03-29T17:28:08.758Z,23.84
2023-03-29T17:30:08.810Z,23.81
2023-03-29T17:32:08.842Z,23.80
2023-03-29T17:34:08.827Z,23.81
2023-03-29T17:36:09.011Z,23.86
2023-03-29T17:38:08.854Z,23.81
2023-03-29T17:40:08.609Z,23.79
2023-03-29T17:42:08.835Z,23.76
2023-03-29T17:44:08.800Z,23.68
2023-03-29T17:46:08.908Z,23.77
2023-03-29T17:48:08.847Z,23.73
2023-03-29T17:50:08.840Z,23.66
2023-03-29T17:52:08.851Z,23.73
2023-03-29T17:54:08.875Z,23.81
2023-03-29T17:56:08.787Z,23.77
2023-03-29T17:58:08.854Z,23.73
2023-03-29T18:00:08.774Z,23.73
2023-03-29T18:02:08.900Z,23.86
2023-03-29T18:04:08.783Z,23.93
2023-03-29T18:06:08.895Z,23.94
2023-03-29T18:08:08.881Z,23.91
2023-03-29T18:10:08.837Z,23.96
2023-03-29T18:12:08.890Z,27.00
2023-03-29T18:14:08.885Z,27.08
2023-03-29T18:16:08.896Z,27.10
2023-03-29T18:18:08.802Z,25.98
2023-03-29T18:20:08.828Z,25.47
2023-03-29T18:22:08.928Z,25.53
2023-03-29T18:24:08.869Z,25.48
2023-03-29T18:26:08.856Z,25.44
2023-03-29T18:28:08.898Z,25.52
2023-03-29T18:30:09.029Z,25.45
2023-03-29T18:32:08.924Z,25.47
2023-03-29T18:34:08.809Z,25.52
2023-03-29T18:36:11.924Z,25.52
2023-03-29T18:38:08.942Z,25.52
2023-03-29T18:40:08.827Z,25.46
2023-03-29T18:42:10.838Z,25.41
2023-03-29T18:44:08.908Z,25.50
2023-03-29T18:46:08.901Z,25.47
2023-03-29T18:48:08.767Z,25.52
2023-03-29T18:50:08.934Z,25.52
2023-03-29T18:52:08.883Z,25.51
2023-03-29T18:54:08.927Z,25.56
2023-03-29T18:56:09.013Z,25.11
2023-03-29T18:58:08.887Z,25.52
2023-03-29T19:00:10.069Z,25.52
2023-03-29T19:02:08.881Z,25.56
2023-03-29T19:04:08.883Z,25.52
2023-03-29T19:06:08.843Z,25.50
2023-03-29T19:08:08.884Z,25.51
2023-03-29T19:10:09.005Z,25.52
2023-03-29T19:12:09.124Z,25.45
2023-03-29T19:14:09.089Z,25.52
2023-03-29T19:16:09.147Z,25.57
2023-03-29T19:18:09.021Z,25.53
2023-03-29T19:20:08.968Z,25.63
2023-03-29T19:22:08.946Z,25.56
2023-03-29T19:24:08.809Z,25.52
2023-03-29T19:26:09.026Z,25.54
2023-03-29T19:28:09.006Z,25.52
2023-03-29T19:30:09.028Z,25.59
2023-03-29T19:32:08.915Z,25.52
2023-03-29T19:34:08.996Z,25.56
2023-03-29T19:36:09.100Z,25.52
2023-03-29T19:38:08.994Z,25.52
2023-03-29T19:40:09.073Z,25.52
2023-03-29T19:42:10.097Z,25.52
2023-03-29T19:44:09.035Z,25.54
2023-03-29T19:46:09.090Z,25.49
2023-03-29T19:50:08.899Z,25.53
2023-03-29T19:52:09.003Z,25.45
2023-03-29T19:54:09.176Z,25.47
2023-03-29T19:56:09.001Z,25.54
2023-03-29T19:58:09.040Z,25.53
2023-03-29T20:00:09.030Z,25.57
2023-03-29T20:02:08.996Z,25.57
2023-03-29T20:04:09.176Z,25.48
2023-03-29T20:06:09.060Z,25.45
2023-03-29T20:08:08.993Z,25.52
2023-03-29T20:10:08.880Z,25.52
2023-03-29T20:12:08.937Z,25.47
2023-03-29T20:14:08.959Z,25.43
2023-03-29T20:16:09.021Z,25.54
2023-03-29T20:18:08.993Z,25.52
2023-03-29T20:20:08.972Z,25.46
2023-03-29T20:22:09.013Z,25.52
2023-03-29T20:24:09.012Z,25.47
2023-03-29T20:26:08.988Z,25.45
2023-03-29T20:28:09.009Z,25.52
2023-03-29T20:30:09.003Z,25.49
2023-03-29T20:32:09.144Z,25.45
2023-03-29T20:34:08.994Z,25.58
2023-03-29T20:36:09.103Z,25.45
2023-03-29T20:38:08.932Z,25.51
2023-03-29T20:40:08.914Z,25.47
2023-03-29T20:42:09.050Z,25.52
2023-03-29T20:44:08.988Z,25.51
2023-03-29T20:46:09.055Z,25.44
2023-03-29T20:48:09.028Z,25.40
2023-03-29T20:50:09.062Z,25.42
2023-03-29T20:52:09.016Z,25.45
2023-03-29T20:54:08.956Z,25.48
2023-03-29T20:56:09.076Z,25.44
2023-03-29T20:58:08.917Z,25.39
2023-03-29T21:00:08.980Z,25.40
2023-03-29T21:02:09.080Z,25.44
2023-03-29T21:04:09.026Z,25.37
2023-03-29T21:06:09.017Z,25.45
2023-03-29T21:08:09.049Z,25.46
2023-03-29T21:10:09.010Z,25.46
2023-03-29T21:12:09.085Z,25.39
2023-03-29T21:14:09.013Z,25.39
2023-03-29T21:16:09.147Z,25.44
2023-03-29T21:18:09.132Z,25.37
2023-03-29T21:20:09.077Z,25.48
2023-03-29T21:22:08.944Z,25.38
2023-03-29T21:24:09.103Z,25.34
2023-03-29T21:26:09.027Z,25.46
2023-03-29T21:28:09.095Z,25.37
2023-03-29T21:30:09.096Z,25.35
2023-03-29T21:32:09.031Z,25.36
2023-03-29T21:34:09.074Z,25.43
2023-03-29T21:36:09.124Z,25.43
2023-03-29T21:38:08.981Z,25.39
2023-03-29T21:40:08.975Z,25.47
2023-03-29T21:42:09.037Z,25.40
2023-03-29T21:44:09.058Z,25.40
2023-03-29T21:46:09.145Z,25.50
2023-03-29T21:48:09.104Z,25.42
2023-03-29T21:50:09.031Z,25.36
2023-03-29T21:52:09.038Z,25.37
2023-03-29T21:54:09.038Z,25.37
2023-03-29T21:56:09.081Z,25.38
2023-03-29T21:58:09.097Z,25.39
2023-03-29T22:00:09.129Z,25.39
2023-03-29T22:02:09.226Z,25.37
2023-03-29T22:04:09.116Z,25.40
2023-03-29T22:06:09.104Z,25.37
2023-03-29T22:08:09.120Z,25.35
2023-03-29T22:10:09.096Z,25.38
2023-03-29T22:12:09.029Z,25.37
2023-03-29T22:14:09.046Z,25.08
2023-03-29T22:16:09.145Z,25.42
2023-03-29T22:18:09.094Z,25.45
2023-03-29T22:20:09.091Z,25.52
2023-03-29T22:22:09.089Z,25.46
2023-03-29T22:24:09.130Z,25.42
2023-03-29T22:26:09.061Z,25.52
2023-03-29T22:28:09.074Z,25.43
2023-03-29T22:30:09.137Z,25.37
2023-03-29T22:32:09.149Z,25.47
2023-03-29T22:34:09.140Z,25.50
2023-03-29T22:36:09.198Z,25.58
2023-03-29T22:38:09.035Z,25.52
2023-03-29T22:40:09.097Z,25.52
2023-03-29T22:42:09.048Z,25.52
2023-03-29T22:44:09.027Z,25.52
2023-03-29T22:46:09.145Z,25.50
2023-03-29T22:48:09.162Z,25.43
2023-03-29T22:50:09.125Z,25.50
2023-03-29T22:52:09.061Z,25.48
2023-03-29T22:54:09.184Z,25.44
2023-03-29T22:56:09.165Z,25.50
2023-03-29T22:58:09.142Z,25.52
2023-03-29T23:00:09.477Z,25.51
2023-03-29T23:02:09.154Z,25.44
2023-03-29T23:04:09.151Z,25.44
2023-03-29T23:06:09.103Z,25.45
2023-03-29T23:08:09.167Z,25.48
2023-03-29T23:10:09.049Z,25.49
2023-03-29T23:12:09.204Z,25.54
2023-03-29T23:14:09.138Z,25.52
2023-03-29T23:16:09.245Z,25.48
2023-03-29T23:18:09.266Z,25.46
2023-03-29T23:20:09.126Z,25.44
2023-03-29T23:22:09.166Z,25.45
2023-03-29T23:24:09.133Z,25.45
2023-03-29T23:26:09.199Z,25.47
2023-03-29T23:28:09.236Z,25.53
2023-03-29T23:30:09.220Z,25.47
2023-03-29T23:32:09.203Z,25.46
2023-03-29T23:34:09.140Z,25.50
2023-03-29T23:36:09.210Z,25.47
2023-03-29T23:38:09.051Z,25.46
2023-03-29T23:40:09.197Z,25.51
2023-03-29T23:42:09.266Z,25.44
2023-03-29T23:44:09.175Z,25.46
2023-03-29T23:46:09.163Z,25.50
2023-03-29T23:48:14.933Z,25.45
2023-03-29T23:50:09.175Z,25.44
2023-03-29T23:52:09.232Z,25.52
2023-03-29T23:54:09.262Z,25.43
2023-03-29T23:56:09.295Z,25.57
2023-03-29T23:58:09.231Z,25.52
